Time;durP1;ratioP1;P1;durP2;ratioP2;P2;SDS_P1;SDS_P2;PMS_P1;PMS_P2;Temp;Humidity;BMP_temperature;BMP_pressure;BME280_temperature;BME280_humidity;BME280_pressure;Samples;Min_cycle;Max_cycle;Signal;HPM_P1;HPM_P2
2022/08/12 00:43:42;;;;;;;;;;;23.90;47.10;;;;;;5093580;28;19927;-64
2022/08/12 00:48:52;;;;;;;;;;;23.90;47.10;;;;;;5100437;28;19920;-64
2022/08/12 00:51:19;;;;;;;;;;;24.00;47.10;;;;;;5096395;28;19920;-64
2022/08/12 00:53:46;;;;;;;;;;;23.90;47.10;;;;;;5093127;28;19920;-64
2022/08/12 00:56:13;;;;;;;;;;;23.90;47.10;;;;;;5055280;28;19925;-63
2022/08/12 00:58:44;;;;;;;;;;;24.00;47.20;;;;;;5073821;28;20267;-64
2022/08/12 01:01:11;;;;;;;;;;;23.90;47.10;;;;;;5096809;28;19920;-64
2022/08/12 01:12:01;;;;;;;;;;;23.90;47.20;;;;;;5059820;28;19928;-64
2022/08/12 01:14:29;;;;;;;;;;;23.90;47.20;;;;;;5055463;28;19924;-64
2022/08/12 01:16:56;;;;;;;;;;;23.90;47.20;;;;;;5089672;28;19924;-64
2022/08/12 01:19:23;;;;;;;;;;;23.90;47.20;;;;;;5112413;28;20032;-64
2022/08/12 01:22:12;;;;;;;;;;;23.90;47.20;;;;;;5104483;28;20266;-64
2022/08/12 01:24:57;;;;;;;;;;;23.90;47.20;;;;;;5090141;28;19926;-64
2022/08/12 01:27:31;;;;;;;;;;;23.90;47.20;;;;;;5095565;28;19920;-64
2022/08/12 01:29:58;;;;;;;;;;;23.90;47.20;;;;;;5092997;28;19924;-65
2022/08/12 01:32:26;;;;;;;;;;;23.90;47.30;;;;;;5112891;28;19920;-64
2022/08/12 01:34:53;;;;;;;;;;;23.90;47.30;;;;;;5114696;28;19924;-63
2022/08/12 01:37:24;;;;;;;;;;;23.90;47.30;;;;;;5088086;28;19965;-64
2022/08/12 01:39:54;;;;;;;;;;;23.90;47.30;;;;;;5095570;28;19926;-64
2022/08/12 01:42:21;;;;;;;;;;;23.90;47.30;;;;;;5078165;28;19921;-64
2022/08/12 01:44:51;;;;;;;;;;;23.90;47.30;;;;;;5095797;28;19920;-64
2022/08/12 01:47:21;;;;;;;;;;;23.90;47.30;;;;;;5076260;28;20391;-64
2022/08/12 01:49:50;;;;;;;;;;;23.90;47.30;;;;;;5110947;28;20416;-65
2022/08/12 01:52:20;;;;;;;;;;;23.90;47.30;;;;;;5094256;28;19923;-64
2022/08/12 01:54:48;;;;;;;;;;;23.90;47.30;;;;;;5076571;28;19974;-64
2022/08/12 01:57:17;;;;;;;;;;;23.90;47.30;;;;;;5080014;28;19920;-64
2022/08/12 01:59:57;;;;;;;;;;;23.90;47.40;;;;;;5098758;27;20006;-65
2022/08/12 02:02:31;;;;;;;;;;;23.90;47.40;;;;;;5092581;28;20027;-64
2022/08/12 02:13:33;;;;;;;;;;;23.90;47.40;;;;;;5101555;27;20425;-65
2022/08/12 02:16:02;;;;;;;;;;;23.90;47.40;;;;;;5074833;28;20331;-65
2022/08/12 02:18:34;;;;;;;;;;;23.90;47.40;;;;;;5079773;28;20299;-65
2022/08/12 02:21:01;;;;;;;;;;;23.90;47.40;;;;;;5100549;28;20017;-65
2022/08/12 02:23:28;;;;;;;;;;;23.90;47.40;;;;;;5072813;28;19924;-65
2022/08/12 02:25:59;;;;;;;;;;;23.90;47.40;;;;;;5085823;28;19924;-65
2022/08/12 02:28:26;;;;;;;;;;;23.90;47.40;;;;;;5097581;28;20372;-66
2022/08/12 02:30:54;;;;;;;;;;;23.90;47.40;;;;;;5098233;28;19959;-66
2022/08/12 02:33:21;;;;;;;;;;;23.90;47.40;;;;;;5085396;28;20017;-66
2022/08/12 02:35:50;;;;;;;;;;;23.90;48.00;;;;;;5072881;28;19924;-66
2022/08/12 02:38:17;;;;;;;;;;;23.90;47.40;;;;;;5089213;28;19930;-66
2022/08/12 02:40:44;;;;;;;;;;;23.90;47.40;;;;;;5071853;28;19920;-66
2022/08/12 02:43:12;;;;;;;;;;;23.90;47.40;;;;;;5080209;28;19926;-66
2022/08/12 02:45:44;;;;;;;;;;;23.90;47.40;;;;;;5074805;28;19995;-66
2022/08/12 02:48:13;;;;;;;;;;;23.90;47.40;;;;;;5089004;28;19970;-66
2022/08/12 02:50:42;;;;;;;;;;;23.90;47.50;;;;;;5074419;28;19970;-66
2022/08/12 02:53:10;;;;;;;;;;;23.90;47.40;;;;;;5074714;28;19924;-66
2022/08/12 02:55:36;;;;;;;;;;;23.90;47.40;;;;;;5083138;28;20372;-66
2022/08/12 02:58:04;;;;;;;;;;;23.90;47.40;;;;;;5088491;28;19974;-64
2022/08/12 03:00:30;;;;;;;;;;;23.90;47.50;;;;;;5089807;28;19927;-65
2022/08/12 03:02:58;;;;;;;;;;;23.90;47.40;;;;;;5075218;28;19971;-65
2022/08/12 03:05:24;;;;;;;;;;;23.90;47.50;;;;;;5087892;28;20045;-65
2022/08/12 03:07:52;;;;;;;;;;;23.90;47.50;;;;;;5092279;28;19966;-65
2022/08/12 03:10:21;;;;;;;;;;;23.90;47.40;;;;;;5103448;28;20014;-66
2022/08/12 03:12:50;;;;;;;;;;;23.90;47.50;;;;;;5081958;28;19920;-65
2022/08/12 03:15:17;;;;;;;;;;;23.90;47.50;;;;;;5077803;28;19921;-65
2022/08/12 03:17:53;;;;;;;;;;;23.90;47.50;;;;;;5073142;28;19920;-65
2022/08/12 03:20:20;;;;;;;;;;;23.90;47.40;;;;;;5076147;28;19935;-66
2022/08/12 03:22:48;;;;;;;;;;;23.80;47.40;;;;;;5069503;28;19927;-65
2022/08/12 03:25:16;;;;;;;;;;;23.80;47.40;;;;;;5084668;28;19920;-66
2022/08/12 03:27:50;;;;;;;;;;;23.90;47.40;;;;;;5073352;28;19921;-65
2022/08/12 03:30:17;;;;;;;;;;;23.80;47.40;;;;;;5096672;28;19972;-65
2022/08/12 03:32:45;;;;;;;;;;;23.80;47.40;;;;;;5088615;28;19927;-65
2022/08/12 03:35:12;;;;;;;;;;;23.80;47.40;;;;;;5103784;28;19942;-66
2022/08/12 03:37:39;;;;;;;;;;;23.80;47.40;;;;;;5091207;28;20019;-65
2022/08/12 03:40:07;;;;;;;;;;;23.80;47.40;;;;;;5075982;28;20011;-65
2022/08/12 03:42:34;;;;;;;;;;;23.80;47.40;;;;;;5073503;28;19938;-67
2022/08/12 04:01:51;;;;;;;;;;;23.80;47.40;;;;;;5106766;28;19928;-65
2022/08/12 04:04:22;;;;;;;;;;;23.80;47.40;;;;;;5068645;28;20026;-66
2022/08/12 04:06:51;;;;;;;;;;;23.80;47.40;;;;;;5084184;28;19943;-65
2022/08/12 04:09:18;;;;;;;;;;;23.80;47.40;;;;;;5067980;28;20262;-66
2022/08/12 04:14:30;;;;;;;;;;;23.80;47.40;;;;;;5098018;28;19931;-65
2022/08/12 04:16:58;;;;;;;;;;;23.80;47.40;;;;;;5100355;28;19920;-66
2022/08/12 04:19:25;;;;;;;;;;;23.80;47.40;;;;;;5076409;28;19928;-66
2022/08/12 04:21:51;;;;;;;;;;;23.80;47.40;;;;;;5080399;28;19931;-65
2022/08/12 04:24:23;;;;;;;;;;;23.80;47.40;;;;;;5115440;27;19924;-66
2022/08/12 04:26:50;;;;;;;;;;;23.80;47.40;;;;;;5080944;28;19924;-67
2022/08/12 04:29:16;;;;;;;;;;;23.80;47.40;;;;;;5111872;27;19920;-66
2022/08/12 04:31:43;;;;;;;;;;;23.80;47.40;;;;;;5092080;28;19920;-66
2022/08/12 04:34:15;;;;;;;;;;;23.80;47.40;;;;;;5091045;28;20427;-67
2022/08/12 04:36:41;;;;;;;;;;;23.80;47.40;;;;;;5118665;27;19989;-66
2022/08/12 04:39:09;;;;;;;;;;;23.80;47.40;;;;;;5099717;28;19919;-66
2022/08/12 04:41:36;;;;;;;;;;;23.80;47.40;;;;;;5072528;28;19931;-65
2022/08/12 04:44:03;;;;;;;;;;;23.80;47.40;;;;;;5088668;28;19928;-67
2022/08/12 04:46:30;;;;;;;;;;;23.80;47.40;;;;;;5103593;28;19920;-67
2022/08/12 04:48:59;;;;;;;;;;;23.80;47.40;;;;;;5087699;28;19920;-66
2022/08/12 04:51:27;;;;;;;;;;;23.80;47.40;;;;;;5096882;28;19920;-66
2022/08/12 04:53:53;;;;;;;;;;;23.80;47.40;;;;;;5090888;28;20381;-66
2022/08/12 04:56:20;;;;;;;;;;;23.80;47.40;;;;;;5091471;28;20281;-65
2022/08/12 04:58:47;;;;;;;;;;;23.80;47.40;;;;;;5107540;28;19970;-67
2022/08/12 05:01:14;;;;;;;;;;;23.80;47.40;;;;;;5090515;28;19926;-66
2022/08/12 05:03:42;;;;;;;;;;;23.80;47.40;;;;;;5087795;28;19924;-66
2022/08/12 05:06:08;;;;;;;;;;;23.70;47.30;;;;;;5074090;28;20281;-66
2022/08/12 05:08:36;;;;;;;;;;;23.80;47.40;;;;;;5091899;28;19924;-65
2022/08/12 05:11:05;;;;;;;;;;;23.80;47.40;;;;;;5087621;28;19920;-66
2022/08/12 05:13:35;;;;;;;;;;;23.70;47.30;;;;;;5088576;28;19966;-66
2022/08/12 05:16:02;;;;;;;;;;;23.80;47.40;;;;;;5085134;28;19955;-66
2022/08/12 05:18:29;;;;;;;;;;;23.70;47.40;;;;;;5070282;28;19924;-66
2022/08/12 05:20:57;;;;;;;;;;;23.80;47.40;;;;;;5070453;28;19926;-66
2022/08/12 05:23:24;;;;;;;;;;;23.80;47.40;;;;;;5103237;28;19920;-67
2022/08/12 05:25:55;;;;;;;;;;;23.80;47.40;;;;;;5092343;28;20287;-67
2022/08/12 05:28:21;;;;;;;;;;;23.70;47.40;;;;;;5080035;28;20378;-67
2022/08/12 05:30:48;;;;;;;;;;;23.80;47.50;;;;;;5091411;28;19924;-66
2022/08/12 05:33:15;;;;;;;;;;;23.70;47.40;;;;;;5068131;28;19966;-66
2022/08/12 05:35:43;;;;;;;;;;;23.80;47.50;;;;;;5071276;28;19921;-66
2022/08/12 05:40:56;;;;;;;;;;;23.70;47.40;;;;;;5088505;28;19926;-67
2022/08/12 05:43:23;;;;;;;;;;;23.70;47.40;;;;;;5081763;28;19932;-67
2022/08/12 05:45:50;;;;;;;;;;;23.70;47.40;;;;;;5086750;28;19940;-65
2022/08/12 05:48:17;;;;;;;;;;;23.70;47.50;;;;;;5071612;28;19920;-67
2022/08/12 05:50:44;;;;;;;;;;;23.70;47.50;;;;;;5092737;28;20632;-67
2022/08/12 05:53:11;;;;;;;;;;;23.80;47.60;;;;;;5092397;28;20395;-65
2022/08/12 05:55:37;;;;;;;;;;;23.70;47.50;;;;;;5083802;28;20011;-66
2022/08/12 05:58:06;;;;;;;;;;;23.70;47.50;;;;;;5094839;28;19936;-66
2022/08/12 06:00:33;;;;;;;;;;;23.70;47.50;;;;;;5083374;28;19967;-66
2022/08/12 06:03:00;;;;;;;;;;;23.70;47.50;;;;;;5076330;28;19989;-66
2022/08/12 06:05:27;;;;;;;;;;;23.70;47.50;;;;;;5080477;28;19920;-66
2022/08/12 06:07:54;;;;;;;;;;;23.70;47.50;;;;;;5083591;28;19978;-66
2022/08/12 06:10:21;;;;;;;;;;;23.70;47.60;;;;;;5090983;28;20384;-67
2022/08/12 06:12:48;;;;;;;;;;;23.70;47.60;;;;;;5088279;28;20346;-66
2022/08/12 06:15:16;;;;;;;;;;;23.70;47.60;;;;;;5071804;28;19974;-65
2022/08/12 06:17:43;;;;;;;;;;;23.70;47.70;;;;;;5085021;28;19920;-66
2022/08/12 06:20:12;;;;;;;;;;;23.70;47.70;;;;;;5094254;28;19928;-65
2022/08/12 06:22:39;;;;;;;;;;;23.70;47.60;;;;;;5083679;28;19937;-66
2022/08/12 06:25:06;;;;;;;;;;;23.70;47.70;;;;;;5075111;28;20028;-65
2022/08/12 06:27:34;;;;;;;;;;;23.70;47.70;;;;;;5074079;28;19932;-65
2022/08/12 06:30:01;;;;;;;;;;;23.70;47.70;;;;;;5110337;27;19927;-65
2022/08/12 06:32:29;;;;;;;;;;;23.70;47.70;;;;;;5068728;28;20447;-66
2022/08/12 06:34:56;;;;;;;;;;;23.70;47.70;;;;;;5080051;28;19959;-65
2022/08/12 06:37:23;;;;;;;;;;;23.70;47.70;;;;;;5083077;28;19920;-65
2022/08/12 06:39:49;;;;;;;;;;;23.70;47.80;;;;;;5086845;28;19920;-65
2022/08/12 06:45:00;;;;;;;;;;;23.70;47.80;;;;;;5109872;27;19963;-66
2022/08/12 06:47:31;;;;;;;;;;;23.70;47.80;;;;;;5089518;28;19923;-67
2022/08/12 06:49:58;;;;;;;;;;;23.70;47.80;;;;;;5086641;28;19920;-67
2022/08/12 06:52:24;;;;;;;;;;;23.70;47.90;;;;;;5075782;28;19921;-67
2022/08/12 06:54:52;;;;;;;;;;;23.70;47.90;;;;;;5071639;28;19932;-67
2022/08/12 06:57:19;;;;;;;;;;;23.70;47.90;;;;;;5065382;28;19955;-65
2022/08/12 06:59:45;;;;;;;;;;;23.70;47.90;;;;;;5067125;28;19969;-66
2022/08/12 07:02:12;;;;;;;;;;;23.70;47.90;;;;;;5101661;28;19927;-67
2022/08/12 07:04:40;;;;;;;;;;;23.70;47.90;;;;;;5076648;28;19971;-66
2022/08/12 07:07:07;;;;;;;;;;;23.80;48.00;;;;;;5080823;28;19967;-66
2022/08/12 07:09:34;;;;;;;;;;;23.80;48.00;;;;;;5080008;28;19972;-66
2022/08/12 07:12:01;;;;;;;;;;;23.80;48.00;;;;;;5073603;28;19957;-66
2022/08/12 07:14:28;;;;;;;;;;;23.80;48.00;;;;;;5059386;28;20028;-66
2022/08/12 07:17:00;;;;;;;;;;;23.80;48.00;;;;;;5085421;28;19990;-66
2022/08/12 07:19:28;;;;;;;;;;;23.80;48.00;;;;;;5065970;28;20002;-66
2022/08/12 07:22:05;;;;;;;;;;;23.80;48.00;;;;;;5058641;28;19932;-67
2022/08/12 07:24:31;;;;;;;;;;;23.80;48.00;;;;;;5082967;28;19976;-66
2022/08/12 07:26:58;;;;;;;;;;;23.80;48.00;;;;;;5064479;28;19978;-65
2022/08/12 07:29:27;;;;;;;;;;;23.80;48.10;;;;;;5060795;28;19928;-66
2022/08/12 07:31:58;;;;;;;;;;;23.80;48.10;;;;;;5063331;28;20385;-63
2022/08/12 07:34:25;;;;;;;;;;;23.80;48.20;;;;;;5089769;28;19971;-66
2022/08/12 07:36:51;;;;;;;;;;;23.80;48.20;;;;;;5072038;28;20013;-65
2022/08/12 07:39:19;;;;;;;;;;;23.80;48.20;;;;;;5078338;28;20280;-65
2022/08/12 07:41:46;;;;;;;;;;;23.80;48.20;;;;;;5086740;28;19927;-65
2022/08/12 07:44:14;;;;;;;;;;;23.80;48.20;;;;;;5068443;28;20027;-64
2022/08/12 07:46:42;;;;;;;;;;;23.80;48.30;;;;;;5104299;27;19923;-64
2022/08/12 07:49:09;;;;;;;;;;;23.80;48.30;;;;;;5073245;28;19920;-65
2022/08/12 07:51:36;;;;;;;;;;;23.80;48.20;;;;;;5072180;28;19920;-64
2022/08/12 07:54:07;;;;;;;;;;;23.80;48.30;;;;;;5088423;28;19927;-64
2022/08/12 07:56:36;;;;;;;;;;;23.80;48.20;;;;;;5075736;28;19924;-64
2022/08/12 07:59:02;;;;;;;;;;;23.90;48.30;;;;;;5075563;28;19924;-65
2022/08/12 08:01:29;;;;;;;;;;;23.90;48.40;;;;;;5091812;28;19974;-65
2022/08/12 08:06:41;;;;;;;;;;;23.90;48.30;;;;;;5094335;28;20373;-65
2022/08/12 08:09:08;;;;;;;;;;;23.90;48.40;;;;;;5089729;28;20356;-65
2022/08/12 08:14:21;;;;;;;;;;;23.90;48.30;;;;;;5088483;28;19967;-65
2022/08/12 08:16:48;;;;;;;;;;;24.00;48.40;;;;;;5090164;28;20412;-65
2022/08/12 08:19:22;;;;;;;;;;;23.90;48.40;;;;;;5061557;28;19930;-64
2022/08/12 08:21:49;;;;;;;;;;;24.00;49.00;;;;;;5089448;28;20597;-64
2022/08/12 08:24:16;;;;;;;;;;;24.00;48.40;;;;;;5074280;28;20385;-64
2022/08/12 08:26:46;;;;;;;;;;;24.00;48.50;;;;;;5087004;28;19924;-64
2022/08/12 08:29:12;;;;;;;;;;;24.00;48.50;;;;;;5067608;28;20038;-64
2022/08/12 08:31:42;;;;;;;;;;;24.00;48.50;;;;;;5090597;28;20357;-64
2022/08/12 08:34:09;;;;;;;;;;;24.00;48.50;;;;;;5078592;28;19942;-65
2022/08/12 08:36:35;;;;;;;;;;;24.00;48.50;;;;;;5090954;28;19920;-65
2022/08/12 08:39:03;;;;;;;;;;;24.00;48.50;;;;;;5090706;28;19974;-64
2022/08/12 08:44:15;;;;;;;;;;;24.00;48.50;;;;;;5082134;28;20416;-65
2022/08/12 08:46:43;;;;;;;;;;;24.00;48.50;;;;;;5088455;28;19926;-64
2022/08/12 08:49:10;;;;;;;;;;;24.00;48.50;;;;;;5077114;28;19931;-64
2022/08/12 08:51:37;;;;;;;;;;;24.00;48.50;;;;;;5080127;28;19993;-64
2022/08/12 08:54:05;;;;;;;;;;;24.10;48.60;;;;;;5078124;28;19920;-64
2022/08/12 08:56:32;;;;;;;;;;;24.10;48.60;;;;;;5088809;28;19924;-64
2022/08/12 08:58:58;;;;;;;;;;;24.10;48.60;;;;;;5069658;28;19928;-64
2022/08/12 09:01:27;;;;;;;;;;;24.10;48.60;;;;;;5096312;28;20364;-64
2022/08/12 09:03:53;;;;;;;;;;;24.10;48.60;;;;;;5089943;28;19947;-64
2022/08/12 09:06:22;;;;;;;;;;;24.10;48.70;;;;;;5087100;28;19978;-65
2022/08/12 09:08:48;;;;;;;;;;;24.10;48.70;;;;;;5092946;28;19924;-63
2022/08/12 09:13:59;;;;;;;;;;;24.10;48.70;;;;;;5102103;28;20383;-63
2022/08/12 09:16:27;;;;;;;;;;;24.10;48.70;;;;;;5089838;28;20377;-63
2022/08/12 09:18:54;;;;;;;;;;;24.10;48.70;;;;;;5099352;28;19935;-63
2022/08/12 09:21:22;;;;;;;;;;;24.10;48.70;;;;;;5094731;28;19919;-63
2022/08/12 09:23:49;;;;;;;;;;;24.20;48.80;;;;;;5095256;28;19940;-64
2022/08/12 09:26:17;;;;;;;;;;;24.10;48.70;;;;;;5086858;28;19928;-63
2022/08/12 09:28:46;;;;;;;;;;;24.10;48.70;;;;;;5085814;28;19970;-64
2022/08/12 09:31:12;;;;;;;;;;;24.20;48.80;;;;;;5099839;27;19920;-64
2022/08/12 09:33:40;;;;;;;;;;;24.20;48.80;;;;;;5085052;28;20026;-64
2022/08/12 09:36:07;;;;;;;;;;;24.20;48.80;;;;;;5077087;28;19920;-65
2022/08/12 09:38:34;;;;;;;;;;;24.20;48.80;;;;;;5082207;28;19932;-64
2022/08/12 09:41:01;;;;;;;;;;;24.20;48.80;;;;;;5088470;28;19955;-65
2022/08/12 09:46:15;;;;;;;;;;;24.20;48.80;;;;;;5094089;28;19920;-65
2022/08/12 09:48:43;;;;;;;;;;;24.30;48.90;;;;;;5089305;28;20284;-64
2022/08/12 09:51:11;;;;;;;;;;;24.20;48.80;;;;;;5084155;28;19939;-64
2022/08/12 09:53:38;;;;;;;;;;;24.20;48.80;;;;;;5093687;28;19927;-65
2022/08/12 09:56:05;;;;;;;;;;;24.20;48.80;;;;;;5071972;28;19920;-64
2022/08/12 09:58:33;;;;;;;;;;;24.30;48.90;;;;;;5106188;27;19928;-65
2022/08/12 10:01:01;;;;;;;;;;;24.30;48.90;;;;;;5095632;28;19920;-64
2022/08/12 10:03:30;;;;;;;;;;;24.30;48.90;;;;;;5078150;28;19927;-64
2022/08/12 10:05:58;;;;;;;;;;;24.30;48.80;;;;;;5088259;28;20365;-65
2022/08/12 10:08:29;;;;;;;;;;;24.30;48.70;;;;;;5082353;28;20031;-64
2022/08/12 10:13:42;;;;;;;;;;;24.30;48.70;;;;;;5087844;28;19920;-65
2022/08/12 10:16:11;;;;;;;;;;;24.30;48.60;;;;;;5065826;28;19947;-64
2022/08/12 10:18:37;;;;;;;;;;;24.30;48.50;;;;;;5089575;28;19987;-63
2022/08/12 10:21:08;;;;;;;;;;;24.30;48.40;;;;;;5086210;28;20416;-64
2022/08/12 10:23:35;;;;;;;;;;;24.30;48.30;;;;;;5089581;28;19942;-64
2022/08/12 10:31:31;;;;;;;;;;;24.30;48.20;;;;;;5091233;28;19975;-64
2022/08/12 10:33:58;;;;;;;;;;;24.30;48.10;;;;;;5074157;28;19959;-63
2022/08/12 10:36:26;;;;;;;;;;;24.30;47.90;;;;;;5079458;28;19962;-63
2022/08/12 10:38:53;;;;;;;;;;;24.30;47.60;;;;;;5100545;27;19973;-63
2022/08/12 10:44:04;;;;;;;;;;;24.30;47.00;;;;;;5088809;28;19920;-63
2022/08/12 10:46:31;;;;;;;;;;;24.40;46.90;;;;;;5099627;27;20010;-64
2022/08/12 10:48:58;;;;;;;;;;;24.40;46.80;;;;;;5066300;28;19920;-63
2022/08/12 10:51:30;;;;;;;;;;;24.40;46.30;;;;;;5078250;28;19932;-63
2022/08/12 10:53:56;;;;;;;;;;;24.40;45.70;;;;;;5060890;28;19927;-63
2022/08/12 10:56:23;;;;;;;;;;;24.40;45.90;;;;;;5064846;28;19966;-63
2022/08/12 10:58:50;;;;;;;;;;;24.40;45.90;;;;;;5074048;28;19924;-63
2022/08/12 11:01:17;;;;;;;;;;;24.40;45.90;;;;;;5051931;28;20269;-63
2022/08/12 11:03:44;;;;;;;;;;;24.40;45.50;;;;;;5075874;28;19921;-64
2022/08/12 11:06:11;;;;;;;;;;;24.40;45.50;;;;;;5080594;28;19926;-63
2022/08/12 11:08:39;;;;;;;;;;;24.40;45.40;;;;;;5091182;28;19928;-64
2022/08/12 11:11:07;;;;;;;;;;;24.40;45.20;;;;;;5091270;28;20376;-64
2022/08/12 11:13:33;;;;;;;;;;;24.50;45.20;;;;;;5067948;28;20361;-63
2022/08/12 11:16:00;;;;;;;;;;;24.50;45.10;;;;;;5096442;28;20396;-64
2022/08/12 11:18:27;;;;;;;;;;;24.50;44.90;;;;;;5055987;28;19932;-64
2022/08/12 11:20:54;;;;;;;;;;;24.50;44.80;;;;;;5073392;28;19959;-63
2022/08/12 11:23:21;;;;;;;;;;;24.50;44.50;;;;;;5066174;28;19924;-64
2022/08/12 11:25:49;;;;;;;;;;;24.50;44.20;;;;;;5074653;28;20015;-63
2022/08/12 11:28:16;;;;;;;;;;;24.50;44.40;;;;;;5070224;28;19924;-63
2022/08/12 11:30:42;;;;;;;;;;;24.50;44.50;;;;;;5063744;28;19925;-63
2022/08/12 11:33:09;;;;;;;;;;;24.50;44.60;;;;;;5076586;28;20015;-64
2022/08/12 11:35:37;;;;;;;;;;;24.50;44.80;;;;;;5104491;28;19943;-64
2022/08/12 11:38:04;;;;;;;;;;;24.50;45.00;;;;;;5066846;28;19925;-64
2022/08/12 11:40:31;;;;;;;;;;;24.50;45.00;;;;;;5069505;28;19963;-64
2022/08/12 11:42:59;;;;;;;;;;;24.50;45.00;;;;;;5086294;28;19924;-63
2022/08/12 11:45:26;;;;;;;;;;;24.50;45.00;;;;;;5060377;28;19924;-64
2022/08/12 11:47:53;;;;;;;;;;;24.60;45.20;;;;;;5078965;28;19923;-63
2022/08/12 11:50:20;;;;;;;;;;;24.50;45.10;;;;;;5069373;28;19971;-64
2022/08/12 11:52:47;;;;;;;;;;;24.50;45.20;;;;;;5081725;28;19925;-64
2022/08/12 11:55:14;;;;;;;;;;;24.50;45.10;;;;;;5070872;28;19932;-65
2022/08/12 11:57:48;;;;;;;;;;;24.60;44.90;;;;;;5069720;28;19924;-64
2022/08/12 12:00:16;;;;;;;;;;;24.50;45.00;;;;;;5069060;28;19921;-63
2022/08/12 12:02:43;;;;;;;;;;;24.50;45.10;;;;;;5050078;28;19929;-64
2022/08/12 12:05:10;;;;;;;;;;;24.50;44.80;;;;;;5074602;28;20027;-63
2022/08/12 12:07:38;;;;;;;;;;;24.60;44.80;;;;;;5084126;28;19920;-65
2022/08/12 12:10:05;;;;;;;;;;;24.60;44.60;;;;;;5059336;28;19920;-64
2022/08/12 12:12:31;;;;;;;;;;;24.60;44.50;;;;;;5065909;28;19932;-64
2022/08/12 12:14:59;;;;;;;;;;;24.60;44.60;;;;;;5074733;28;20023;-64
2022/08/12 12:17:27;;;;;;;;;;;24.60;44.70;;;;;;5075702;28;19992;-64
2022/08/12 12:19:54;;;;;;;;;;;24.60;44.60;;;;;;5071611;28;19936;-64
2022/08/12 12:22:21;;;;;;;;;;;24.60;44.50;;;;;;5067666;28;19964;-63
2022/08/12 12:24:50;;;;;;;;;;;24.60;44.70;;;;;;5092061;28;20332;-64
2022/08/12 12:27:17;;;;;;;;;;;24.60;44.30;;;;;;5071297;28;19921;-64
2022/08/12 12:29:44;;;;;;;;;;;24.60;44.40;;;;;;5074490;28;20253;-65
2022/08/12 12:32:11;;;;;;;;;;;24.60;44.20;;;;;;5053329;28;19924;-65
2022/08/12 12:34:39;;;;;;;;;;;24.60;44.20;;;;;;5077937;28;20217;-65
2022/08/12 12:37:08;;;;;;;;;;;24.60;44.20;;;;;;5076944;28;20316;-63
2022/08/12 12:39:35;;;;;;;;;;;24.60;44.10;;;;;;5071147;28;19920;-64
2022/08/12 12:42:02;;;;;;;;;;;24.60;44.30;;;;;;5098098;28;19979;-63
2022/08/12 12:44:28;;;;;;;;;;;24.60;44.40;;;;;;5075037;28;20297;-64
2022/08/12 12:46:55;;;;;;;;;;;24.60;44.30;;;;;;5058143;28;19924;-63
2022/08/12 12:49:22;;;;;;;;;;;24.60;44.00;;;;;;5094921;28;19920;-64
2022/08/12 12:51:50;;;;;;;;;;;24.60;44.10;;;;;;5060905;28;20357;-64
2022/08/12 12:54:16;;;;;;;;;;;24.70;44.20;;;;;;5072409;28;19958;-63
2022/08/12 12:56:48;;;;;;;;;;;24.70;44.20;;;;;;5075609;28;19920;-64
2022/08/12 12:59:17;;;;;;;;;;;24.60;44.30;;;;;;5090785;28;19921;-64
2022/08/12 13:01:44;;;;;;;;;;;24.60;44.20;;;;;;5057674;28;19924;-64
2022/08/12 13:04:10;;;;;;;;;;;24.60;44.30;;;;;;5072421;28;19925;-64
2022/08/12 13:06:38;;;;;;;;;;;24.60;44.30;;;;;;5074049;28;20269;-64
2022/08/12 13:09:06;;;;;;;;;;;24.70;44.30;;;;;;5070772;28;19920;-64
2022/08/12 13:11:33;;;;;;;;;;;24.60;44.40;;;;;;5073503;28;19986;-64
2022/08/12 13:14:00;;;;;;;;;;;24.60;44.20;;;;;;5064297;28;19932;-64
2022/08/12 13:16:28;;;;;;;;;;;24.70;44.20;;;;;;5081746;28;19951;-64
2022/08/12 13:18:55;;;;;;;;;;;24.60;43.90;;;;;;5080493;28;19924;-63
2022/08/12 13:21:21;;;;;;;;;;;24.70;43.80;;;;;;5093022;27;19932;-64
2022/08/12 13:23:48;;;;;;;;;;;24.70;43.90;;;;;;5089178;28;19974;-63
2022/08/12 13:26:17;;;;;;;;;;;24.70;43.90;;;;;;5064715;28;19972;-63
2022/08/12 13:28:44;;;;;;;;;;;24.70;44.00;;;;;;5072649;28;20031;-63
2022/08/12 13:31:11;;;;;;;;;;;24.70;44.10;;;;;;5087574;27;19951;-63
2022/08/12 13:33:38;;;;;;;;;;;24.70;44.00;;;;;;5068109;28;19967;-64
2022/08/12 13:36:05;;;;;;;;;;;24.70;44.00;;;;;;5077589;28;19924;-64
2022/08/12 13:38:37;;;;;;;;;;;24.70;44.00;;;;;;5073704;28;19928;-64
2022/08/12 13:41:03;;;;;;;;;;;24.70;43.80;;;;;;5075217;28;20338;-63
2022/08/12 13:43:32;;;;;;;;;;;24.70;43.80;;;;;;5067314;28;19944;-63
2022/08/12 13:45:59;;;;;;;;;;;24.70;43.80;;;;;;5060456;28;19920;-63
2022/08/12 13:48:25;;;;;;;;;;;24.70;43.60;;;;;;5055831;28;19920;-64
2022/08/12 13:50:52;;;;;;;;;;;24.70;43.60;;;;;;5086672;28;19927;-63
2022/08/12 13:53:19;;;;;;;;;;;24.70;43.70;;;;;;5085148;28;19950;-63
2022/08/12 13:55:46;;;;;;;;;;;24.70;43.70;;;;;;5096500;27;19932;-63
2022/08/12 13:58:15;;;;;;;;;;;24.80;43.80;;;;;;5068004;28;19920;-63
2022/08/12 14:00:45;;;;;;;;;;;24.80;43.80;;;;;;5072619;28;19931;-64
2022/08/12 14:03:12;;;;;;;;;;;24.80;43.90;;;;;;5063827;28;20334;-64
2022/08/12 14:05:39;;;;;;;;;;;24.80;43.80;;;;;;5095528;28;19959;-63
2022/08/12 14:08:06;;;;;;;;;;;24.80;43.80;;;;;;5084544;28;19923;-63
2022/08/12 14:10:36;;;;;;;;;;;24.80;43.80;;;;;;5064207;28;19924;-63
2022/08/12 14:13:04;;;;;;;;;;;24.80;43.60;;;;;;5060067;28;20327;-64
2022/08/12 14:15:30;;;;;;;;;;;24.80;43.60;;;;;;5100875;27;19920;-63
2022/08/12 14:18:06;;;;;;;;;;;24.80;43.50;;;;;;5075393;28;19921;-63
2022/08/12 14:20:32;;;;;;;;;;;24.80;43.50;;;;;;5073652;28;19927;-64
2022/08/12 14:22:59;;;;;;;;;;;24.80;43.50;;;;;;5073116;28;20304;-64
2022/08/12 14:25:27;;;;;;;;;;;24.80;43.30;;;;;;5102936;27;20425;-63
2022/08/12 14:27:54;;;;;;;;;;;24.80;42.70;;;;;;5073184;28;19921;-64
2022/08/12 14:30:22;;;;;;;;;;;24.80;41.30;;;;;;5077574;28;19925;-63
2022/08/12 14:32:48;;;;;;;;;;;24.80;41.10;;;;;;5079639;28;20383;-63
2022/08/12 14:35:18;;;;;;;;;;;24.80;41.20;;;;;;5058937;28;19920;-62
2022/08/12 14:37:44;;;;;;;;;;;24.80;41.50;;;;;;5095081;28;19924;-63
2022/08/12 14:40:12;;;;;;;;;;;24.80;41.80;;;;;;5071842;28;19920;-63
2022/08/12 14:42:38;;;;;;;;;;;24.80;41.90;;;;;;5089732;28;19995;-63
2022/08/12 14:45:06;;;;;;;;;;;24.80;42.00;;;;;;5092037;27;19931;-63
2022/08/12 14:47:33;;;;;;;;;;;24.80;42.10;;;;;;5088278;28;19992;-63
2022/08/12 14:50:00;;;;;;;;;;;24.80;42.20;;;;;;5060789;28;19920;-63
2022/08/12 14:52:28;;;;;;;;;;;24.80;42.20;;;;;;5075422;28;19948;-63
2022/08/12 14:54:54;;;;;;;;;;;24.80;42.20;;;;;;5077756;28;20436;-63
2022/08/12 14:57:21;;;;;;;;;;;24.80;42.30;;;;;;5075051;28;19981;-64
2022/08/12 15:02:35;;;;;;;;;;;24.80;42.20;;;;;;5054056;28;19932;-63
2022/08/12 15:05:03;;;;;;;;;;;24.80;42.20;;;;;;5074175;28;19967;-63
2022/08/12 15:07:31;;;;;;;;;;;24.80;42.10;;;;;;5082187;28;19927;-63
2022/08/12 15:09:57;;;;;;;;;;;24.80;42.10;;;;;;5107932;28;20292;-63
2022/08/12 15:12:24;;;;;;;;;;;24.80;42.00;;;;;;5088549;28;19920;-63
2022/08/12 15:14:52;;;;;;;;;;;24.80;42.00;;;;;;5097473;28;20273;-63
2022/08/12 15:17:19;;;;;;;;;;;24.70;41.90;;;;;;5067902;28;20390;-63
2022/08/12 15:19:45;;;;;;;;;;;24.70;42.00;;;;;;5053622;28;19920;-64
2022/08/12 15:22:14;;;;;;;;;;;24.70;41.90;;;;;;5072205;28;19967;-63
2022/08/12 15:24:43;;;;;;;;;;;24.80;41.90;;;;;;5084724;28;20006;-63
2022/08/12 15:27:10;;;;;;;;;;;24.80;41.90;;;;;;5083542;28;19969;-63
2022/08/12 15:29:36;;;;;;;;;;;24.70;41.80;;;;;;5062346;28;19920;-63
2022/08/12 15:32:03;;;;;;;;;;;24.70;41.80;;;;;;5094946;27;20357;-63
2022/08/12 15:34:32;;;;;;;;;;;24.70;41.80;;;;;;5087022;28;19974;-64
2022/08/12 15:36:58;;;;;;;;;;;24.70;41.80;;;;;;5092611;28;20332;-64
2022/08/12 15:39:25;;;;;;;;;;;24.70;41.80;;;;;;5093119;28;19931;-63
2022/08/12 15:41:53;;;;;;;;;;;24.70;41.80;;;;;;5072262;28;20186;-63
2022/08/12 15:44:20;;;;;;;;;;;24.70;41.90;;;;;;5069364;28;20363;-63
2022/08/12 15:46:47;;;;;;;;;;;24.70;41.90;;;;;;5086701;28;19920;-63
2022/08/12 15:49:13;;;;;;;;;;;24.70;42.00;;;;;;5069673;28;19932;-63
2022/08/12 15:51:40;;;;;;;;;;;24.70;42.00;;;;;;5085155;28;20409;-64
2022/08/12 15:54:12;;;;;;;;;;;24.70;42.00;;;;;;5089678;28;19972;-64
2022/08/12 15:56:40;;;;;;;;;;;24.70;42.00;;;;;;5078060;28;19950;-64
2022/08/12 15:59:12;;;;;;;;;;;24.70;42.00;;;;;;5098256;28;19932;-64
2022/08/12 16:01:40;;;;;;;;;;;24.70;42.20;;;;;;5068026;28;20346;-64
2022/08/12 16:04:11;;;;;;;;;;;24.70;42.20;;;;;;5069225;28;20396;-63
2022/08/12 16:06:38;;;;;;;;;;;24.70;42.20;;;;;;5072958;28;19931;-64
2022/08/12 16:09:05;;;;;;;;;;;24.70;42.20;;;;;;5069839;28;19924;-63
2022/08/12 16:11:38;;;;;;;;;;;24.70;42.10;;;;;;5069578;28;20390;-64
2022/08/12 16:14:06;;;;;;;;;;;24.70;42.10;;;;;;5078024;28;20369;-64